createdAt,value
2019-03-27T00:00:01.953Z,1
2019-03-27T00:05:01.632Z,2
2019-03-27T00:10:01.450Z,1
2019-03-27T00:15:12.783Z,2
2019-03-27T00:20:02.197Z,0
2019-03-27T00:25:01.556Z,1
2019-03-27T00:30:01.929Z,1
2019-03-27T00:35:02.266Z,0
2019-03-27T00:40:02.086Z,1
2019-03-27T00:45:01.417Z,1
2019-03-27T00:50:01.811Z,1
2019-03-27T00:55:02.201Z,2
2019-03-27T01:00:01.537Z,1
2019-03-27T01:05:02.182Z,2
2019-03-27T01:10:02.203Z,1
2019-03-27T01:15:02.317Z,1
2019-03-27T01:20:01.768Z,2
2019-03-27T01:25:02.173Z,1
2019-03-27T01:30:01.582Z,1
2019-03-27T01:35:01.940Z,1
2019-03-27T01:40:01.731Z,1
2019-03-27T01:45:02.078Z,1
2019-03-27T01:50:01.442Z,1
2019-03-27T01:55:01.797Z,1
2019-03-27T02:00:02.132Z,1
2019-03-27T02:05:01.756Z,1
2019-03-27T02:10:01.620Z,1
2019-03-27T02:15:01.663Z,1
2019-03-27T02:20:02.130Z,1
2019-03-27T02:25:01.479Z,2
2019-03-27T02:30:01.889Z,1
2019-03-27T02:35:02.233Z,1
2019-03-27T02:40:02.086Z,0
2019-03-27T02:45:01.447Z,1
2019-03-27T02:50:01.852Z,1
2019-03-27T02:55:02.227Z,2
2019-03-27T03:00:01.558Z,2
2019-03-27T03:05:02.199Z,1
2019-03-27T03:10:01.997Z,1
2019-03-27T03:15:01.499Z,2
2019-03-27T03:20:01.977Z,1
2019-03-27T03:25:01.300Z,2
2019-03-27T03:30:01.667Z,2
2019-03-27T03:35:02.157Z,1
2019-03-27T03:40:02.009Z,1
2019-03-27T03:45:01.338Z,1
2019-03-27T03:50:01.758Z,2
2019-03-27T03:55:02.164Z,2
2019-03-27T04:00:01.646Z,2
2019-03-27T04:05:01.314Z,2
2019-03-27T04:10:02.350Z,2
2019-03-27T04:15:01.351Z,2
2019-03-27T04:20:01.821Z,2
2019-03-27T04:25:02.234Z,3
2019-03-27T04:30:01.575Z,2
2019-03-27T04:35:01.942Z,2
2019-03-27T04:40:01.781Z,0
2019-03-27T04:45:02.145Z,1
2019-03-27T04:50:01.544Z,1
2019-03-27T04:55:01.915Z,1
2019-03-27T05:00:02.326Z,2
2019-03-27T05:05:01.954Z,1
2019-03-27T05:10:01.751Z,2
2019-03-27T05:15:02.024Z,2
2019-03-27T05:20:01.462Z,2
2019-03-27T05:25:01.844Z,3
2019-03-27T05:30:02.233Z,3
2019-03-27T05:35:02.156Z,3
2019-03-27T05:40:01.971Z,4
2019-03-27T05:45:01.319Z,3
2019-03-27T05:50:01.719Z,4
2019-03-27T05:55:02.060Z,5
2019-03-27T06:00:01.397Z,3
2019-03-27T06:05:02.056Z,4
2019-03-27T06:10:01.873Z,4
2019-03-27T06:15:01.404Z,4
2019-03-27T06:20:01.915Z,5
2019-03-27T06:25:02.318Z,5
2019-03-27T06:30:01.624Z,4
2019-03-27T06:35:02.011Z,5
2019-03-27T06:40:01.784Z,5
2019-03-27T06:45:02.134Z,5
2019-03-27T06:50:01.516Z,4
2019-03-27T06:55:01.874Z,4
2019-03-27T07:00:02.176Z,4
2019-03-27T07:05:01.788Z,2
2019-03-27T07:10:01.553Z,4
2019-03-27T07:15:01.907Z,3
2019-03-27T07:20:01.355Z,2
2019-03-27T07:25:01.720Z,2
2019-03-27T07:30:02.097Z,2
2019-03-27T07:35:01.463Z,1
2019-03-27T07:40:02.233Z,2
2019-03-27T07:45:01.618Z,2
2019-03-27T07:50:01.975Z,2
2019-03-27T07:55:01.308Z,3
2019-03-27T08:00:01.677Z,3
2019-03-27T08:05:01.323Z,4
2019-03-27T08:10:02.120Z,2
2019-03-27T08:15:02.099Z,2
2019-03-27T08:20:01.513Z,2
2019-03-27T08:25:01.900Z,1
2019-03-27T08:30:02.268Z,1
2019-03-27T08:35:01.591Z,1
2019-03-27T08:40:01.437Z,1
2019-03-27T08:45:01.823Z,2
2019-03-27T08:50:02.175Z,2
2019-03-27T08:55:01.553Z,1
2019-03-27T09:00:02.859Z,1
2019-03-27T09:05:01.646Z,2
2019-03-27T09:10:01.419Z,2
2019-03-27T09:15:02.307Z,3
2019-03-27T09:20:01.741Z,2
2019-03-27T09:25:02.078Z,2
2019-03-27T09:30:01.463Z,1
2019-03-27T09:35:01.840Z,2
2019-03-27T09:40:01.623Z,1
2019-03-27T09:45:02.246Z,1
2019-03-27T09:50:01.551Z,2
2019-03-27T09:55:01.903Z,2
2019-03-27T10:00:02.281Z,2
2019-03-27T10:05:01.901Z,1
2019-03-27T10:10:01.641Z,2
2019-03-27T10:15:01.876Z,1
2019-03-27T10:20:03.716Z,3
2019-03-27T10:25:01.589Z,2
2019-03-27T10:30:01.950Z,3
2019-03-27T10:35:02.346Z,2
2019-03-27T10:40:02.150Z,2
2019-03-27T10:45:01.456Z,2
2019-03-27T10:50:01.859Z,1
2019-03-27T10:55:02.203Z,2
2019-03-27T11:00:01.557Z,3
2019-03-27T11:05:02.189Z,3
2019-03-27T11:10:02.011Z,3
2019-03-27T11:15:01.703Z,2
2019-03-27T11:20:01.490Z,2
2019-03-27T11:25:01.883Z,1
2019-03-27T11:30:02.514Z,3
2019-03-27T11:35:01.862Z,3
2019-03-27T11:40:01.665Z,3
2019-03-27T11:45:02.013Z,2
2019-03-27T11:50:01.370Z,3
2019-03-27T11:55:01.753Z,3
2019-03-27T12:00:02.124Z,2
2019-03-27T12:05:01.762Z,2
2019-03-27T12:10:01.551Z,2
2019-03-27T12:15:01.991Z,5
2019-03-27T12:20:01.431Z,3
2019-03-27T12:25:01.819Z,2
2019-03-27T12:30:02.199Z,3
2019-03-27T12:35:01.550Z,3
2019-03-27T12:40:01.308Z,3
2019-03-27T12:45:02.266Z,2
2019-03-27T12:50:01.812Z,3
2019-03-27T12:55:02.205Z,3
2019-03-27T13:00:01.497Z,4
2019-03-27T13:05:02.177Z,3
2019-03-27T13:10:01.947Z,3
2019-03-27T13:15:01.509Z,3
2019-03-27T13:20:02.026Z,3
2019-03-27T13:25:01.383Z,3
2019-03-27T13:30:01.737Z,4
2019-03-27T13:35:02.106Z,4
2019-03-27T13:40:01.931Z,3
2019-03-27T13:45:02.232Z,4
2019-03-27T13:50:01.581Z,3
2019-03-27T13:55:01.922Z,1
2019-03-27T14:00:02.252Z,3
2019-03-27T14:05:01.897Z,4
2019-03-27T14:10:01.773Z,3
2019-03-27T14:15:01.604Z,2
2019-03-27T14:20:02.050Z,4
2019-03-27T14:25:01.462Z,4
2019-03-27T14:30:01.849Z,4
2019-03-27T14:35:02.245Z,3
2019-03-27T14:40:02.000Z,4
2019-03-27T14:45:01.351Z,2
2019-03-27T14:50:01.982Z,2
2019-03-27T14:55:03.302Z,2
2019-03-27T15:00:01.899Z,4
2019-03-27T15:05:01.557Z,4
2019-03-27T15:10:01.620Z,4
2019-03-27T15:15:02.281Z,3
2019-03-27T15:20:01.721Z,3
2019-03-27T15:25:02.071Z,4
2019-03-27T15:30:01.419Z,4
2019-03-27T15:35:01.769Z,5
2019-03-27T15:40:01.594Z,4
2019-03-27T15:45:01.936Z,3
2019-03-27T15:50:02.325Z,4
2019-03-27T15:55:01.654Z,4
2019-03-27T16:00:02.051Z,5
2019-03-27T16:05:01.725Z,4
2019-03-27T16:10:01.550Z,5
2019-03-27T16:15:01.464Z,3
2019-03-27T16:20:01.912Z,4
2019-03-27T16:25:02.279Z,5
2019-03-27T16:30:01.640Z,4
2019-03-27T16:35:01.992Z,4
2019-03-27T16:40:01.836Z,6
2019-03-27T16:45:02.197Z,7
2019-03-27T16:50:01.564Z,7
2019-03-27T16:55:01.924Z,6
2019-03-27T17:00:02.256Z,5
2019-03-27T17:05:01.863Z,4
2019-03-27T17:10:01.623Z,7
2019-03-27T17:15:02.122Z,8
2019-03-27T17:20:01.548Z,5
2019-03-27T17:25:01.896Z,7
2019-03-27T17:30:02.273Z,4
2019-03-27T17:35:01.595Z,6
2019-03-27T17:40:01.385Z,7
2019-03-27T17:45:01.757Z,5
2019-03-27T17:50:02.120Z,6
2019-03-27T17:55:01.481Z,6
2019-03-27T18:00:01.998Z,5
2019-03-27T18:05:01.679Z,5
2019-03-27T18:10:01.458Z,5
2019-03-27T18:15:01.439Z,6
2019-03-27T18:20:01.896Z,4
2019-03-27T18:25:02.307Z,5
2019-03-27T18:30:01.663Z,4
2019-03-27T18:35:02.020Z,6
2019-03-27T18:40:01.814Z,5
2019-03-27T18:45:02.179Z,4
2019-03-27T18:50:01.494Z,4
2019-03-27T18:55:01.898Z,5
2019-03-27T19:00:02.281Z,5
2019-03-27T19:05:01.918Z,7
2019-03-27T19:10:01.713Z,4
2019-03-27T19:15:01.982Z,4
2019-03-27T19:20:01.419Z,5
2019-03-27T19:25:01.805Z,6
2019-03-27T19:30:02.176Z,6
2019-03-27T19:35:01.561Z,5
2019-03-27T19:40:01.769Z,5
2019-03-27T19:45:02.210Z,5
2019-03-27T19:50:01.605Z,5
2019-03-27T19:55:01.986Z,5
2019-03-27T20:00:01.287Z,6
2019-03-27T20:05:01.927Z,5
2019-03-27T20:10:01.794Z,5
2019-03-27T20:15:11.747Z,3
2019-03-27T20:20:02.220Z,5
2019-03-27T20:25:01.545Z,5
2019-03-27T20:30:01.964Z,5
2019-03-27T20:35:01.308Z,3
2019-03-27T20:40:02.140Z,5
2019-03-27T20:45:01.545Z,6
2019-03-27T20:50:01.917Z,5
2019-03-27T20:55:02.259Z,5
2019-03-27T21:00:01.553Z,4
2019-03-27T21:05:02.218Z,4
2019-03-27T21:10:02.509Z,6
2019-03-27T21:15:01.679Z,5
2019-03-27T21:20:02.119Z,5
2019-03-27T21:25:08.810Z,4
2019-03-27T21:30:01.908Z,4
2019-03-27T21:35:02.282Z,6
2019-03-27T21:40:02.110Z,5
2019-03-27T21:45:01.450Z,5
2019-03-27T21:50:01.867Z,5
2019-03-27T21:55:02.246Z,5
2019-03-27T22:00:01.639Z,5
2019-03-27T22:05:01.643Z,4
2019-03-27T22:10:01.548Z,5
2019-03-27T22:15:01.432Z,6
2019-03-27T22:20:01.941Z,4
2019-03-27T22:25:02.324Z,4
2019-03-27T22:30:01.740Z,4
2019-03-27T22:35:02.140Z,4
2019-03-27T22:40:02.028Z,4
2019-03-27T22:45:01.403Z,4
2019-03-27T22:50:01.831Z,4
2019-03-27T22:55:02.260Z,4
2019-03-27T23:00:01.658Z,4
2019-03-27T23:05:02.325Z,4
2019-03-27T23:10:02.140Z,4
2019-03-27T23:15:02.127Z,4
2019-03-27T23:20:02.255Z,4
2019-03-27T23:25:01.623Z,4
2019-03-27T23:30:02.259Z,4
2019-03-27T23:35:01.608Z,4
2019-03-27T23:40:01.477Z,6
2019-03-27T23:45:01.712Z,6
2019-03-27T23:50:02.095Z,6
2019-03-27T23:55:01.526Z,6
